Terminal Aerodrome Forecast
Issued by NWS

Home | Current Version | Previous Version | Text Only | Print | Product List | Glossary On
Versions: 1 2 3 4 5 6 7 8 9 10 11 12 13 14 15 16 17 18
000
FTUS43 KDTX 250952 AAA
TAFPTK
TAF AMD
KPTK 250952Z 2510/2606 22003KT 3SM BR SCT050 BKN100
      TEMPO 2510/2512 BKN050
     FM251200 24011KT P6SM SCT022 OVC040
     FM251600 28015G25KT P6SM BKN018
     FM251900 29014G24KT P6SM SKC
     FM260000 27012KT P6SM SKC=

USA.gov is the U.S. government's official web portal to all federal, state and local government web resources and services.